Key West, FL

12:26 PM EDT on August 29, 2015 (GMT -0400)
Key West International | | Change Station
CLOSE
Current Station
Airport
Location: Key West,
Elevation: 0 ft
Nearby Weather Stations

Elev 0 ft 24.56 °N, 81.75 °W | Updated 33 minutes ago

Clear
Clear
89 °F
Feels Like 104 °F
N
15
Wind Variable Wind from East

Today
High -- | Low -- °F
--% Chance of Precip.
Yesterday
High -- | Low -- °F
Precip. -- in
7:07 AM 7:48 PM
Full, 100% visible
Pressure 30.01 in
Visibility 10.0 miles
Clouds Clear
Heat Index 104 °F
Dew Point 79 °F
Humidity 72%
Rainfall 0.02 in
Snow Depth Not available.
UV 13 out of 12
Pollen 5.40 out of 12
Air Quality Not available.
Flu Activity Not available.
METAR KEYW 291553Z 10013KT 10SM CLR 32/26 A3001 RMK AO2 RAB12E27 SLP162 P0000 T03170261
Pressure 30.01 in
Visibility 10.0 miles
Clouds Clear
Heat Index 104 °F
Dew Point 79 °F
Humidity 72%
Rainfall 0.02 in
Snow Depth Not available.
UV 13 out of 12
Pollen 5.40 out of 12
Air Quality Not available.
Flu Activity Not available.
METAR KEYW 291553Z 10013KT 10SM CLR 32/26 A3001 RMK AO2 RAB12E27 SLP162 P0000 T03170261
Nowcast | as of 12:14 PM EDT on August 29, 2015

Widely scattered showers and isolated thunderstorms with moderate to heavy downpours will develop and move quickly westward near 17 knots across the Florida Keys and adjacent coastal waters this afternoon. Heavier showers will bring wind gusts near 25 knots and temporarily reduced visibility. Through 200 PM...a few Keys island communities will experience a brief episode of rain and gusty winds. Coverage and intensity of showers and thunderstorms is expected to go up later this afternoon and tonight.

×

10-Day Weather Forecast

×

Almanac

Astronomy

Aug. 29, 2015 Rise Set
Actual Time
Civil Twilight
Nautical Twilight
Astronomical Twilight
Moon
Length of Visible Light
Length of Day
Tomorrow will be .
, % of the Moon is Illuminated

Today's Extremes

State Highs State Lows

Community

WunderPhotos

Upload Photos

1,850,719 photos uploaded!

WunderBlogs® & News

Nearby

Air Quality

  Air Quality AQ Index Pollutant
Not available.

Snow Depth

Station Depth Elevation

Earthquake Activity

City Distance Mag. Time & Date
Minimum magnitude displayed is 2.5.

Coastal Water Temperatures

Place Temperature

Stations

Nearby Weather Stations

Station Location Temp. Windchill Dew Point Humidity Wind Precip. Elev Updated Type